Terminal Aerodrome Forecast
Issued by NWS

Home | Current Version | Previous Version | Text Only | Print | Product List | Glossary On
Versions: 1 2 3 4 5 6 7 8 9 10 11 12 13 14 15 16
388
FTUS46 KMTR 260545
TAFSTS
TAF
KSTS 260545Z 2606/2706 19005KT P6SM FEW008
      TEMPO 2606/2609 3SM BR OVC004
     FM260900 19004KT 2SM BR OVC004
     FM261800 24008KT P6SM SKC
     FM270300 VRB03KT P6SM FEW009=

USA.gov is the U.S. government's official web portal to all federal, state and local government web resources and services.